createdAt,value
2018-02-14T00:00:46.794Z,8.00
2018-02-14T00:03:15.105Z,7.47
2018-02-14T00:05:42.644Z,7.25
2018-02-14T00:08:10.958Z,7.05
2018-02-14T00:10:38.513Z,7.37
2018-02-14T00:13:06.122Z,8.07
2018-02-14T00:15:33.654Z,7.65
2018-02-14T00:18:01.198Z,7.07
2018-02-14T00:20:28.738Z,7.12
2018-02-14T00:22:57.040Z,7.87
2018-02-14T00:25:24.613Z,7.80
2018-02-14T00:27:52.153Z,7.40
2018-02-14T00:30:20.462Z,7.57
2018-02-14T00:32:48.015Z,7.87
2018-02-14T00:35:16.316Z,7.35
2018-02-14T00:37:43.878Z,7.37
2018-02-14T00:40:11.415Z,7.90
2018-02-14T00:42:39.713Z,8.15
2018-02-14T00:45:07.252Z,7.72
2018-02-14T00:47:34.827Z,6.82
2018-02-14T00:50:03.167Z,7.05
2018-02-14T00:52:30.710Z,7.50
2018-02-14T00:54:58.238Z,7.78
2018-02-14T00:57:26.538Z,7.10
2018-02-14T00:59:54.836Z,7.53
2018-02-14T01:02:22.387Z,7.80
2018-02-14T01:04:49.929Z,7.53
2018-02-14T01:07:17.460Z,7.53
2018-02-14T01:09:45.000Z,7.07
2018-02-14T01:12:12.530Z,7.62
2018-02-14T01:14:40.854Z,7.15
2018-02-14T01:17:08.399Z,7.80
2018-02-14T01:19:36.673Z,6.53
2018-02-14T01:22:04.206Z,7.25
2018-02-14T01:24:31.796Z,7.60
2018-02-14T01:27:00.121Z,7.70
2018-02-14T01:29:27.660Z,7.12
2018-02-14T01:31:55.198Z,7.80
2018-02-14T01:34:23.513Z,6.87
2018-02-14T01:36:51.074Z,7.25
2018-02-14T01:39:18.635Z,8.10
2018-02-14T01:41:46.945Z,7.65
2018-02-14T01:44:14.482Z,7.47
2018-02-14T01:46:42.025Z,7.75
2018-02-14T01:49:09.555Z,7.43
2018-02-14T01:51:37.109Z,8.25
2018-02-14T01:54:04.647Z,7.43
2018-02-14T01:56:32.189Z,7.70
2018-02-14T01:59:00.572Z,7.53
2018-02-14T02:01:28.869Z,8.40
2018-02-14T02:03:56.437Z,7.57
2018-02-14T02:06:23.989Z,7.53
2018-02-14T02:08:52.286Z,8.13
2018-02-14T02:11:19.823Z,7.85
2018-02-14T02:13:47.352Z,8.00
2018-02-14T02:16:14.923Z,8.40
2018-02-14T02:18:42.579Z,7.60
2018-02-14T02:21:10.115Z,7.80
2018-02-14T02:23:37.648Z,7.80
2018-02-14T02:26:05.210Z,8.00
2018-02-14T02:28:33.114Z,8.07
2018-02-14T02:31:01.447Z,8.25
2018-02-14T02:33:29.037Z,7.15
2018-02-14T02:35:56.572Z,8.73
2018-02-14T02:38:24.122Z,7.65
2018-02-14T02:40:51.682Z,8.25
2018-02-14T02:43:19.285Z,7.75
2018-02-14T02:45:46.822Z,8.18
2018-02-14T02:48:14.362Z,8.43
2018-02-14T02:50:41.901Z,8.27
2018-02-14T02:53:10.218Z,8.82
2018-02-14T02:55:37.757Z,9.07
2018-02-14T02:58:06.053Z,8.15
2018-02-14T03:00:33.591Z,8.32
2018-02-14T03:03:01.117Z,8.25
2018-02-14T03:05:28.687Z,8.80
2018-02-14T03:07:56.218Z,8.50
2018-02-14T03:10:23.821Z,8.32
2018-02-14T03:12:51.457Z,8.63
2018-02-14T03:15:18.980Z,8.63
2018-02-14T03:17:46.651Z,9.18
2018-02-14T03:20:14.183Z,8.75
2018-02-14T03:22:41.730Z,9.20
2018-02-14T03:25:09.288Z,9.18
2018-02-14T03:27:36.913Z,9.52
2018-02-14T03:30:04.477Z,8.45
2018-02-14T03:32:32.083Z,9.82
2018-02-14T03:34:59.660Z,9.38
2018-02-14T03:37:27.184Z,9.95
2018-02-14T03:39:55.496Z,9.02
2018-02-14T03:42:23.055Z,9.20
2018-02-14T03:44:50.628Z,8.75
2018-02-14T03:47:18.167Z,9.40
2018-02-14T03:49:46.465Z,9.75
2018-02-14T03:52:14.007Z,9.95
2018-02-14T03:54:41.566Z,8.30
2018-02-14T03:57:09.105Z,9.40
2018-02-14T03:59:36.630Z,9.43
2018-02-14T04:02:04.193Z,9.57
2018-02-14T04:04:31.797Z,9.90
2018-02-14T04:06:59.351Z,9.93
2018-02-14T04:09:26.898Z,10.07
2018-02-14T04:11:54.565Z,9.07
2018-02-14T04:14:22.182Z,9.10
2018-02-14T04:16:49.774Z,9.82
2018-02-14T04:19:18.093Z,9.02
2018-02-14T04:21:45.653Z,9.45
2018-02-14T04:24:13.180Z,9.75
2018-02-14T04:26:41.463Z,9.13
2018-02-14T04:29:09.748Z,9.63
2018-02-14T04:31:38.073Z,9.18
2018-02-14T04:34:05.639Z,9.27
2018-02-14T04:36:33.165Z,9.18
2018-02-14T04:39:01.474Z,9.95
2018-02-14T04:41:29.017Z,9.93
2018-02-14T04:43:57.345Z,9.90
2018-02-14T04:46:25.654Z,10.10
2018-02-14T04:48:53.217Z,9.40
2018-02-14T04:51:20.733Z,9.93
2018-02-14T04:53:48.270Z,9.85
2018-02-14T04:56:16.600Z,9.68
2018-02-14T04:58:44.140Z,10.02
2018-02-14T05:01:12.430Z,9.25
2018-02-14T05:03:39.982Z,10.55
2018-02-14T05:06:07.521Z,10.75
2018-02-14T05:08:35.065Z,10.43
2018-02-14T05:11:02.630Z,10.63
2018-02-14T05:13:30.166Z,9.80
2018-02-14T05:15:57.772Z,10.25
2018-02-14T05:18:25.324Z,10.95
2018-02-14T05:20:52.875Z,11.50
2018-02-14T05:23:20.418Z,10.50
2018-02-14T05:25:47.977Z,9.98
2018-02-14T05:28:15.548Z,10.32
2018-02-14T05:30:43.090Z,10.07
2018-02-14T05:33:11.414Z,10.50
2018-02-14T05:35:38.959Z,10.50
2018-02-14T05:38:06.625Z,10.57
2018-02-14T05:40:34.186Z,10.95
2018-02-14T05:43:01.757Z,11.20
2018-02-14T05:45:29.531Z,10.00
2018-02-14T05:47:57.394Z,10.88
2018-02-14T05:50:24.939Z,11.60
2018-02-14T05:52:52.542Z,10.90
2018-02-14T05:55:20.100Z,12.35
2018-02-14T05:57:47.651Z,12.05
2018-02-14T06:00:15.951Z,12.88
2018-02-14T06:02:43.518Z,11.60
2018-02-14T06:05:11.058Z,12.48
2018-02-14T06:07:39.362Z,11.60
2018-02-14T06:10:06.922Z,11.95
2018-02-14T06:12:34.473Z,11.80
2018-02-14T06:15:02.769Z,12.25
2018-02-14T06:17:30.345Z,11.80
2018-02-14T06:19:57.910Z,12.25
2018-02-14T06:22:25.445Z,11.63
2018-02-14T06:24:54.212Z,11.45
2018-02-14T06:27:21.748Z,12.10
2018-02-14T06:29:49.297Z,11.95
2018-02-14T06:32:17.363Z,11.77
2018-02-14T06:34:44.914Z,12.07
2018-02-14T06:37:13.221Z,13.15
2018-02-14T06:39:40.784Z,12.88
2018-02-14T06:42:08.370Z,13.30
2018-02-14T06:44:35.920Z,13.00
2018-02-14T06:47:03.873Z,13.23
2018-02-14T06:49:32.142Z,12.50
2018-02-14T06:52:00.429Z,13.85
2018-02-14T06:54:28.786Z,12.48
2018-02-14T06:56:56.330Z,13.35
2018-02-14T06:59:23.901Z,13.15
2018-02-14T07:01:51.495Z,13.18
2018-02-14T07:04:19.032Z,12.95
2018-02-14T07:06:46.587Z,13.27
2018-02-14T07:09:14.139Z,12.65
2018-02-14T07:11:41.816Z,13.07
2018-02-14T07:14:09.361Z,13.32
2018-02-14T07:16:36.936Z,13.23
2018-02-14T07:19:04.476Z,13.18
2018-02-14T07:21:32.797Z,14.20
2018-02-14T07:24:00.364Z,14.13
2018-02-14T07:26:27.890Z,14.43
2018-02-14T07:28:55.435Z,13.75
2018-02-14T07:31:23.021Z,12.37
2018-02-14T07:33:51.336Z,13.93
2018-02-14T07:36:19.086Z,13.55
2018-02-14T07:38:46.909Z,13.93
2018-02-14T07:41:14.757Z,12.95
2018-02-14T07:43:42.262Z,14.68
2018-02-14T07:46:09.805Z,14.43
2018-02-14T07:48:37.355Z,13.07
2018-02-14T07:51:04.892Z,13.68
2018-02-14T07:53:32.839Z,14.50
2018-02-14T07:56:01.151Z,13.68
2018-02-14T07:58:28.693Z,14.50
2018-02-14T08:00:57.034Z,15.07
2018-02-14T08:03:24.555Z,13.38
2018-02-14T08:05:52.096Z,14.20
2018-02-14T08:08:20.435Z,14.32
2018-02-14T08:10:47.975Z,13.25
2018-02-14T08:13:15.503Z,13.85
2018-02-14T08:15:43.190Z,13.75
2018-02-14T08:18:11.482Z,14.38
2018-02-14T08:20:39.023Z,14.70
2018-02-14T08:23:07.328Z,14.55
2018-02-14T08:25:34.863Z,14.57
2018-02-14T08:28:03.179Z,14.07
2018-02-14T08:30:30.712Z,14.68
2018-02-14T08:32:59.026Z,13.68
2018-02-14T08:35:26.561Z,14.25
2018-02-14T08:37:54.108Z,14.95
2018-02-14T08:40:21.640Z,15.10
2018-02-14T08:42:49.179Z,14.82
2018-02-14T08:45:16.716Z,14.77
2018-02-14T08:47:45.175Z,14.95
2018-02-14T08:50:12.712Z,14.95
2018-02-14T08:52:40.236Z,14.52
2018-02-14T08:55:07.780Z,16.08
2018-02-14T08:57:35.851Z,14.57
2018-02-14T09:00:03.389Z,14.93
2018-02-14T09:02:31.125Z,15.10
2018-02-14T09:04:59.443Z,15.60
2018-02-14T09:07:26.988Z,16.00
2018-02-14T09:09:54.546Z,16.48
2018-02-14T09:12:22.085Z,16.37
2018-02-14T09:14:49.640Z,16.40
2018-02-14T09:17:17.168Z,15.90
2018-02-14T09:19:44.867Z,15.32
2018-02-14T09:22:12.400Z,15.20
2018-02-14T09:24:39.930Z,15.15
2018-02-14T09:27:08.229Z,15.07
2018-02-14T09:29:35.778Z,14.48
2018-02-14T09:32:03.303Z,15.57
2018-02-14T09:34:30.828Z,14.38
2018-02-14T09:36:58.397Z,16.02
2018-02-14T09:39:25.924Z,14.45
2018-02-14T09:41:53.456Z,14.43
2018-02-14T09:44:21.002Z,14.43
2018-02-14T09:46:48.532Z,15.15
2018-02-14T09:49:16.851Z,13.80
2018-02-14T09:51:44.506Z,14.05
2018-02-14T09:54:12.036Z,13.50
2018-02-14T09:56:39.637Z,13.35
2018-02-14T09:59:07.174Z,12.85
2018-02-14T10:01:34.702Z,13.80
2018-02-14T10:04:02.249Z,13.55
2018-02-14T10:06:29.802Z,13.15
2018-02-14T10:08:57.447Z,13.32
2018-02-14T10:11:25.755Z,13.20
2018-02-14T10:13:53.290Z,11.75
2018-02-14T10:16:21.608Z,13.13
2018-02-14T10:18:49.151Z,13.00
2018-02-14T10:21:17.445Z,12.90
2018-02-14T10:23:44.964Z,12.85
2018-02-14T10:26:12.489Z,12.82
2018-02-14T10:28:40.023Z,12.37
2018-02-14T10:31:08.418Z,13.00
2018-02-14T10:33:35.947Z,12.37
2018-02-14T10:36:03.457Z,11.65
2018-02-14T10:38:30.979Z,11.57
2018-02-14T10:40:58.581Z,12.45
2018-02-14T10:43:26.107Z,13.40
2018-02-14T10:45:53.684Z,13.40
2018-02-14T10:48:21.995Z,12.82
2018-02-14T10:50:49.523Z,13.25
2018-02-14T10:53:17.084Z,12.60
2018-02-14T10:55:44.609Z,11.98
2018-02-14T10:58:12.249Z,11.77
2018-02-14T11:00:45.456Z,11.57
2018-02-14T11:03:18.740Z,12.05
2018-02-14T11:05:51.978Z,11.98
2018-02-14T11:08:19.610Z,11.30
2018-02-14T11:10:47.133Z,12.30
2018-02-14T11:13:14.686Z,11.50
2018-02-14T11:15:42.208Z,11.00
2018-02-14T11:18:09.761Z,10.98
2018-02-14T11:20:37.347Z,11.05
2018-02-14T11:23:04.894Z,10.85
2018-02-14T11:25:32.440Z,10.40
2018-02-14T11:28:00.739Z,9.95
2018-02-14T11:30:28.274Z,10.27
2018-02-14T11:32:55.816Z,12.73
2018-02-14T11:35:23.417Z,37.78
2018-02-14T11:37:51.712Z,29.55
2018-02-14T11:40:20.102Z,16.37
2018-02-14T11:42:47.633Z,17.08
2018-02-14T11:45:15.174Z,16.37
2018-02-14T11:47:42.713Z,9.73
2018-02-14T11:50:10.319Z,13.75
2018-02-14T11:52:37.854Z,10.45
2018-02-14T11:55:05.450Z,10.95
2018-02-14T11:57:33.035Z,16.33
2018-02-14T12:00:00.600Z,15.20
2018-02-14T12:02:28.138Z,24.15
2018-02-14T12:04:55.700Z,9.77
2018-02-14T12:07:23.226Z,9.50
2018-02-14T12:09:50.769Z,9.57
2018-02-14T12:12:19.081Z,9.95
2018-02-14T12:14:46.614Z,8.68
2018-02-14T12:17:14.916Z,8.30
2018-02-14T12:19:42.445Z,8.60
2018-02-14T12:22:09.987Z,8.88
2018-02-14T12:24:37.527Z,10.02
2018-02-14T12:27:05.063Z,8.50
2018-02-14T12:29:33.390Z,8.18
2018-02-14T12:32:00.924Z,8.68
2018-02-14T12:34:28.749Z,8.35
2018-02-14T12:36:56.285Z,7.97
2018-02-14T12:39:23.944Z,7.95
2018-02-14T12:41:51.495Z,7.03
2018-02-14T12:44:19.004Z,7.85
2018-02-14T12:46:46.549Z,8.32
2018-02-14T12:49:14.070Z,7.80
2018-02-14T12:51:42.465Z,7.50
2018-02-14T12:54:10.781Z,7.45
2018-02-14T12:56:38.309Z,7.12
2018-02-14T12:59:06.624Z,6.47
2018-02-14T13:01:34.144Z,6.12
2018-02-14T13:04:02.438Z,6.37
2018-02-14T13:06:30.713Z,6.40
2018-02-14T13:08:59.002Z,6.20
2018-02-14T13:11:27.324Z,6.28
2018-02-14T13:13:54.865Z,6.05
2018-02-14T13:16:22.483Z,5.72
2018-02-14T13:18:49.966Z,5.00
2018-02-14T13:21:17.502Z,6.18
2018-02-14T13:23:45.416Z,6.35
2018-02-14T13:26:13.702Z,6.03
2018-02-14T13:28:41.990Z,6.45
2018-02-14T13:31:10.269Z,5.15
2018-02-14T13:33:38.712Z,5.60
2018-02-14T13:36:06.257Z,5.45
2018-02-14T13:38:33.790Z,7.30
2018-02-14T13:41:02.076Z,5.72
2018-02-14T13:43:29.624Z,6.03
2018-02-14T13:45:57.916Z,5.65
2018-02-14T13:48:26.594Z,5.78
2018-02-14T13:50:54.880Z,5.55
2018-02-14T13:53:23.191Z,4.95
2018-02-14T13:55:50.712Z,4.50
2018-02-14T13:58:18.303Z,4.18
2018-02-14T14:00:46.617Z,4.55
2018-02-14T14:03:14.152Z,5.00
2018-02-14T14:05:42.448Z,4.40
2018-02-14T14:08:10.013Z,4.68
2018-02-14T14:10:37.546Z,4.22
2018-02-14T14:13:05.900Z,4.55
2018-02-14T14:15:33.434Z,4.78
2018-02-14T14:18:01.119Z,4.35
2018-02-14T14:20:28.652Z,4.37
2018-02-14T14:22:56.244Z,6.22
2018-02-14T14:25:23.792Z,5.32
2018-02-14T14:27:51.320Z,5.15
2018-02-14T14:30:19.012Z,5.68
2018-02-14T14:32:46.546Z,4.40
2018-02-14T14:35:14.065Z,5.00
2018-02-14T14:37:41.619Z,4.95
2018-02-14T14:40:09.138Z,4.47
2018-02-14T14:42:36.675Z,4.80
2018-02-14T14:45:04.198Z,4.78
2018-02-14T14:47:32.505Z,5.05
2018-02-14T14:50:00.113Z,4.95
2018-02-14T14:52:27.627Z,5.12
2018-02-14T14:54:55.184Z,5.05
2018-02-14T14:57:22.674Z,5.15
2018-02-14T14:59:50.220Z,5.15
2018-02-14T15:02:17.785Z,5.15
2018-02-14T15:04:45.359Z,4.97
2018-02-14T15:07:13.753Z,5.30
2018-02-14T15:09:41.367Z,4.72
2018-02-14T15:12:08.936Z,5.72
2018-02-14T15:14:36.637Z,5.80
2018-02-14T15:17:04.179Z,5.90
2018-02-14T15:19:32.464Z,5.68
2018-02-14T15:22:00.847Z,6.05
2018-02-14T15:24:29.141Z,13.62
2018-02-14T15:26:56.734Z,7.00
2018-02-14T15:29:24.266Z,5.50
2018-02-14T15:31:52.563Z,5.78
2018-02-14T15:34:20.088Z,5.18
2018-02-14T15:36:47.599Z,6.25
2018-02-14T15:39:15.538Z,6.10
2018-02-14T15:41:43.827Z,6.57
2018-02-14T15:44:12.114Z,6.10
2018-02-14T15:46:40.415Z,5.90
2018-02-14T15:49:07.961Z,6.07
2018-02-14T15:51:36.268Z,6.07
2018-02-14T15:54:03.789Z,6.22
2018-02-14T15:56:31.317Z,5.75
2018-02-14T15:58:58.839Z,5.90
2018-02-14T16:01:26.399Z,6.07
2018-02-14T16:03:54.717Z,5.85
2018-02-14T16:06:22.252Z,5.72
2018-02-14T16:08:50.555Z,6.12
2018-02-14T16:11:18.103Z,5.97
2018-02-14T16:13:46.398Z,6.00
2018-02-14T16:16:14.028Z,5.87
2018-02-14T16:18:41.559Z,5.95
2018-02-14T16:21:09.092Z,5.45
2018-02-14T16:23:36.631Z,5.72
2018-02-14T16:26:04.945Z,6.90
2018-02-14T16:28:32.520Z,14.20
2018-02-14T16:31:00.056Z,7.32
2018-02-14T16:33:28.370Z,6.70
2018-02-14T16:35:56.030Z,11.02
2018-02-14T16:38:23.556Z,27.27
2018-02-14T16:40:51.893Z,12.40
2018-02-14T16:43:19.468Z,8.65
2018-02-14T16:45:47.040Z,7.30
2018-02-14T16:48:14.570Z,6.68
2018-02-14T16:50:42.121Z,6.05
2018-02-14T16:53:10.438Z,5.72
2018-02-14T16:55:37.957Z,6.12
2018-02-14T16:58:06.251Z,5.68
2018-02-14T17:00:34.552Z,6.00
2018-02-14T17:03:02.082Z,6.32
2018-02-14T17:05:29.635Z,5.90
2018-02-14T17:07:57.163Z,6.20
2018-02-14T17:10:24.686Z,5.65
2018-02-14T17:12:52.962Z,5.40
2018-02-14T17:15:21.250Z,5.50
2018-02-14T17:17:49.565Z,5.62
2018-02-14T17:20:17.116Z,5.60
2018-02-14T17:22:44.643Z,5.97
2018-02-14T17:25:12.205Z,5.82
2018-02-14T17:27:39.728Z,6.07
2018-02-14T17:30:07.379Z,5.95
2018-02-14T17:32:35.671Z,5.65
2018-02-14T17:35:03.251Z,6.10
2018-02-14T17:37:30.788Z,5.90
2018-02-14T17:39:58.317Z,7.60
2018-02-14T17:42:26.244Z,5.32
2018-02-14T17:44:53.784Z,10.73
2018-02-14T17:47:22.077Z,6.03
2018-02-14T17:49:49.593Z,5.80
2018-02-14T17:52:17.126Z,5.70
2018-02-14T17:54:44.659Z,5.32
2018-02-14T17:57:12.949Z,5.85
2018-02-14T17:59:40.497Z,9.50
2018-02-14T18:02:08.013Z,8.60
2018-02-14T18:04:35.655Z,5.93
2018-02-14T18:07:03.194Z,5.95
2018-02-14T18:09:31.540Z,6.62
2018-02-14T18:11:59.136Z,5.75
2018-02-14T18:14:27.432Z,6.05
2018-02-14T18:16:55.726Z,6.57
2018-02-14T18:19:23.281Z,6.43
2018-02-14T18:21:50.864Z,6.30
2018-02-14T18:24:18.463Z,55.28
2018-02-14T18:26:46.017Z,30.17
2018-02-14T18:29:13.581Z,45.55
2018-02-14T18:31:41.138Z,7.28
2018-02-14T18:34:08.697Z,6.40
2018-02-14T18:36:36.313Z,6.22
2018-02-14T18:39:04.018Z,5.80
2018-02-14T18:41:32.334Z,5.85
2018-02-14T18:44:00.083Z,6.22
2018-02-14T18:46:27.683Z,6.30
2018-02-14T18:48:55.311Z,6.20
2018-02-14T18:51:22.915Z,5.62
2018-02-14T18:53:50.548Z,6.55
2018-02-14T18:56:18.076Z,6.20
2018-02-14T18:58:45.625Z,6.28
2018-02-14T19:01:13.304Z,6.57
2018-02-14T19:03:40.887Z,5.45
2018-02-14T19:06:08.406Z,6.55
2018-02-14T19:08:36.740Z,6.55
2018-02-14T19:11:04.367Z,6.65
2018-02-14T19:13:31.930Z,7.82
2018-02-14T19:15:59.487Z,7.80
2018-02-14T19:18:27.118Z,8.00
2018-02-14T19:20:54.691Z,8.90
2018-02-14T19:23:22.308Z,24.60
2018-02-14T19:25:49.849Z,34.63
2018-02-14T19:28:17.445Z,18.70
2018-02-14T19:30:45.029Z,10.75
2018-02-14T19:33:13.437Z,9.77
2018-02-14T19:35:41.030Z,10.38
2018-02-14T19:38:08.598Z,9.98
2018-02-14T19:40:36.217Z,11.25
2018-02-14T19:43:04.619Z,11.73
2018-02-14T19:45:32.241Z,11.18
2018-02-14T19:47:59.969Z,11.15
2018-02-14T19:50:27.567Z,11.12
2018-02-14T19:52:55.185Z,11.50
2018-02-14T19:55:23.553Z,11.18
2018-02-14T19:57:51.918Z,11.25
2018-02-14T20:00:19.620Z,11.35
2018-02-14T20:02:48.024Z,13.68
2018-02-14T20:05:15.597Z,12.27
2018-02-14T20:07:43.193Z,11.45
2018-02-14T20:10:10.768Z,12.30
2018-02-14T20:12:38.316Z,11.88
2018-02-14T20:15:06.028Z,12.02
2018-02-14T20:17:34.367Z,12.57
2018-02-14T20:20:01.934Z,12.63
2018-02-14T20:22:29.499Z,12.63
2018-02-14T20:24:57.821Z,12.40
2018-02-14T20:27:26.162Z,12.02
2018-02-14T20:29:53.698Z,13.15
2018-02-14T20:32:21.266Z,43.25
2018-02-14T20:34:48.836Z,30.98
2018-02-14T20:37:16.390Z,25.55
2018-02-14T20:39:43.930Z,14.20
2018-02-14T20:42:12.270Z,13.07
2018-02-14T20:44:40.582Z,12.93
2018-02-14T20:47:08.149Z,12.48
2018-02-14T20:49:35.711Z,12.93
2018-02-14T20:52:03.299Z,12.57
2018-02-14T20:54:32.487Z,11.63
2018-02-14T20:57:00.813Z,13.10
2018-02-14T20:59:28.411Z,12.30
2018-02-14T21:01:56.701Z,11.85
2018-02-14T21:04:24.260Z,12.40
2018-02-14T21:06:51.826Z,12.40
2018-02-14T21:09:19.371Z,11.35
2018-02-14T21:11:47.043Z,12.50
2018-02-14T21:14:14.590Z,12.63
2018-02-14T21:16:42.128Z,12.32
2018-02-14T21:19:10.446Z,11.93
2018-02-14T21:21:37.992Z,11.55
2018-02-14T21:24:05.578Z,12.30
2018-02-14T21:26:33.093Z,12.18
2018-02-14T21:29:01.404Z,12.27
2018-02-14T21:31:28.966Z,12.48
2018-02-14T21:33:56.508Z,11.73
2018-02-14T21:36:24.849Z,12.00
2018-02-14T21:38:52.415Z,11.95
2018-02-14T21:41:19.969Z,12.63
2018-02-14T21:43:47.514Z,12.40
2018-02-14T21:46:15.131Z,11.98
2018-02-14T21:48:42.719Z,12.20
2018-02-14T21:51:11.033Z,11.35
2018-02-14T21:53:38.601Z,11.07
2018-02-14T21:56:06.132Z,10.95
2018-02-14T21:58:34.422Z,11.45
2018-02-14T22:01:02.797Z,11.65
2018-02-14T22:03:31.285Z,11.65
2018-02-14T22:05:58.850Z,11.30
2018-02-14T22:08:27.165Z,11.75
2018-02-14T22:10:54.788Z,10.88
2018-02-14T22:13:22.366Z,11.82
2018-02-14T22:15:50.692Z,11.15
2018-02-14T22:18:18.263Z,10.52
2018-02-14T22:20:45.810Z,11.12
2018-02-14T22:23:13.510Z,10.95
2018-02-14T22:25:41.543Z,10.93
2018-02-14T22:28:09.870Z,11.63
2018-02-14T22:30:37.445Z,11.30
2018-02-14T22:33:05.003Z,11.20
2018-02-14T22:35:32.642Z,11.52
2018-02-14T22:38:00.207Z,11.30
2018-02-14T22:40:27.754Z,11.77
2018-02-14T22:42:55.391Z,11.02
2018-02-14T22:45:22.952Z,10.80
2018-02-14T22:47:50.507Z,11.10
2018-02-14T22:50:18.132Z,10.65
2018-02-14T22:52:45.681Z,11.18
2018-02-14T22:55:13.991Z,10.65
2018-02-14T22:57:41.534Z,11.38
2018-02-14T23:00:09.833Z,11.10
2018-02-14T23:02:37.396Z,11.63
2018-02-14T23:05:04.922Z,10.57
2018-02-14T23:07:32.466Z,10.93
2018-02-14T23:10:00.021Z,10.40
2018-02-14T23:12:27.592Z,10.48
2018-02-14T23:14:55.163Z,10.57
2018-02-14T23:17:22.689Z,10.23
2018-02-14T23:19:50.298Z,10.43
2018-02-14T23:22:17.835Z,9.93
2018-02-14T23:24:45.377Z,10.52
2018-02-14T23:27:12.998Z,11.18
2018-02-14T23:29:40.530Z,11.38
2018-02-14T23:32:08.081Z,10.75
2018-02-14T23:34:35.621Z,10.85
2018-02-14T23:37:03.933Z,10.75
2018-02-14T23:39:31.509Z,11.32
2018-02-14T23:41:59.052Z,11.07
2018-02-14T23:44:26.592Z,10.90
2018-02-14T23:46:54.919Z,11.40
2018-02-14T23:49:22.448Z,10.73
2018-02-14T23:51:50.771Z,11.50
2018-02-14T23:54:18.311Z,14.90
2018-02-14T23:56:45.868Z,12.00
2018-02-14T23:59:14.164Z,14.75
